No.3tokuyomaru — JD3132 — position and weather

sailwx.info

Track history (hours):
 
Tides and Currents Weather Stations Pressure Air Temp Water Temp Dewpoint Dewpoint Depression Visibility Wind Speed Wind Dir Waves Ship Positions

No.3tokuyomaru

Last reported at 2015-Mar-29 12:33 UTC. Time now 2015-Mar-30 20:02 UTC.
Position N 34°37' E 135°01'.

Length 67 m; draft 4.6 m.

Type: Tanker. MMSI: 431002151.

Date/timePositionNaut miles runAvg speedWind from/ knotsBaromVisibWave heightAir tempDewpointWater temp
2015-Mar-29 12:33N 34°37' E 135°01'1010.3
2015-Mar-29 11:33N 34°27' E 135°03'1312.3
2015-Mar-29 10:30N 34°15' E 134°59'232 9.9
2015-Mar-28 11:11N 35°03' E 139°35'711.3
2015-Mar-28 10:33N 35°07' E 139°42'1110.9
2015-Mar-28 09:33N 35°18' E 139°44'1010.3
2015-Mar-28 08:33N 35°28' E 139°48'1212.3
2015-Mar-28 07:33N 35°32' E 140°02'1 1.2
2015-Mar-28 06:29N 35°32' E 140°03'0 0.0
2015-Mar-28 05:29N 35°32' E 140°03'0 0.0
2015-Mar-28 04:26N 35°32' E 140°03'0 0.0
2015-Mar-28 03:32N 35°32' E 140°03'0 0.0
2015-Mar-28 02:26N 35°32' E 140°03'0 0.0
2015-Mar-28 01:32N 35°32' E 140°03'0 0.0
2015-Mar-28 00:26N 35°32' E 140°03'0 0.0
2015-Mar-27 23:31N 35°32' E 140°03'2 2.2
2015-Mar-27 22:31N 35°34' E 140°04'0 0.0
2015-Mar-27 21:31N 35°34' E 140°04'0 0.0
2015-Mar-27 19:13N 35°34' E 140°04'0 0.1
2015-Mar-27 18:26N 35°34' E 140°04'0 0.1
2015-Mar-27 17:32N 35°34' E 140°04'2 2.2
2015-Mar-27 16:33N 35°33' E 140°02'1312.8
2015-Mar-27 15:33N 35°26' E 139°49'1111.1
2015-Mar-27 14:33N 35°15' E 139°47'1312.8
2015-Mar-27 13:33N 35°02' E 139°44'53 8.4
2015-Mar-27 07:15N 35°26' E 140°42'28 7.5
2015-Mar-27 03:33N 35°54' E 140°41'0 0.0
2015-Mar-26 23:22N 35°54' E 140°41'3 3.8
2015-Mar-26 22:33N 35°57' E 140°42'0 0.0
2015-Mar-26 21:33N 35°57' E 140°42'0 0.0
2015-Mar-26 20:33N 35°57' E 140°42'0 0.0
2015-Mar-26 19:33N 35°57' E 140°42'0 0.0
2015-Mar-26 18:29N 35°57' E 140°42'0 0.0
2015-Mar-26 17:33N 35°57' E 140°42'42 9.7
2015-Mar-26 13:12N 35°15' E 140°32'2314.0
2015-Mar-26 11:33N 34°60' E 140°11'2211.2
2015-Mar-26 09:33N 34°58' E 139°44'1212.2
2015-Mar-26 08:33N 35°10' E 139°46'1211.9
2015-Mar-26 07:33N 35°22' E 139°42'9 1.7
2015-Mar-26 02:33N 35°30' E 139°45'3 3.3
2015-Mar-26 01:31N 35°29' E 139°48'0 0.0
2015-Mar-26 00:31N 35°29' E 139°48'0 0.0
2015-Mar-25 23:31N 35°29' E 139°48'0 0.0
2015-Mar-25 22:31N 35°29' E 139°48'0 0.0
2015-Mar-25 21:31N 35°29' E 139°48'0 0.0
2015-Mar-25 20:31N 35°29' E 139°48'0 0.0
2015-Mar-25 19:31N 35°29' E 139°48'0 0.0
2015-Mar-25 18:25N 35°29' E 139°48'0 0.0
2015-Mar-25 17:31N 35°29' E 139°48'0 0.0
2015-Mar-25 16:31N 35°29' E 139°48'0 0.0
2015-Mar-25 15:31N 35°29' E 139°48'4 3.8
2015-Mar-25 14:33N 35°25' E 139°47'1110.8
2015-Mar-25 13:34N 35°15' E 139°47'1212.3
2015-Mar-25 12:33N 35°03' E 139°44'72 4.1
2015-Mar-24 19:09N 35°57' E 140°42'6110.1
2015-Mar-24 13:09N 35°01' E 140°13'1514.2
2015-Mar-24 12:05N 34°53' E 139°58'1212.3
2015-Mar-24 11:07N 34°57' E 139°44'712.8
2015-Mar-24 10:33N 35°04' E 139°44'1312.5
2015-Mar-24 09:32N 35°17' E 139°45'1111.0
2015-Mar-24 08:33N 35°28' E 139°47'3 0.6
2015-Mar-24 03:33N 35°30' E 139°47'9 9.2
2015-Mar-24 02:33N 35°37' E 139°55'0 0.0
2015-Mar-24 01:33N 35°37' E 139°55'0 0.0
2015-Mar-24 00:33N 35°37' E 139°55'0 0.0
2015-Mar-23 23:33N 35°37' E 139°55'3 2.9
2015-Mar-23 22:33N 35°34' E 139°55'6 5.8
2015-Mar-23 21:33N 35°28' E 139°56'0 0.0
2015-Mar-23 20:33N 35°28' E 139°56'0 0.0
2015-Mar-23 19:33N 35°28' E 139°56'0 0.0
2015-Mar-23 18:33N 35°28' E 139°56'0 0.0
2015-Mar-23 17:33N 35°28' E 139°56'0 0.1
2015-Mar-23 16:33N 35°28' E 139°56'0 0.0
2015-Mar-23 15:34N 35°28' E 139°56'0 0.0
2015-Mar-23 14:33N 35°28' E 139°56'0 0.0
2015-Mar-23 13:33N 35°28' E 139°56'0 0.0
2015-Mar-23 12:33N 35°28' E 139°56'0 0.0
2015-Mar-23 11:33N 35°28' E 139°56'0 0.0
2015-Mar-23 10:33N 35°28' E 139°56'0 0.0
2015-Mar-23 09:33N 35°28' E 139°56'0 0.0
2015-Mar-23 08:33N 35°28' E 139°56'0 0.0
2015-Mar-23 07:33N 35°28' E 139°56'0 0.1
2015-Mar-23 06:33N 35°28' E 139°56'0 0.0
2015-Mar-23 05:33N 35°28' E 139°56'0 0.1
2015-Mar-23 04:33N 35°28' E 139°56'0 0.0
2015-Mar-23 03:33N 35°28' E 139°56'0 0.0
2015-Mar-23 02:34N 35°28' E 139°56'0 0.0
2015-Mar-23 01:33N 35°28' E 139°56'0 0.0
2015-Mar-23 00:34N 35°28' E 139°56'0 0.0
2015-Mar-22 23:34N 35°28' E 139°56'0 0.0
2015-Mar-22 22:33N 35°28' E 139°56'0 0.0
2015-Mar-22 21:33N 35°28' E 139°56'0 0.0
2015-Mar-22 20:33N 35°28' E 139°56'0 0.0
2015-Mar-22 19:33N 35°28' E 139°56'0 0.0
2015-Mar-22 18:33N 35°28' E 139°56'0 0.0
2015-Mar-22 17:33N 35°28' E 139°56'0 0.0
2015-Mar-22 16:33N 35°28' E 139°56'1 1.2
2015-Mar-22 15:33N 35°28' E 139°54'1211.9
2015-Mar-22 14:33N 35°20' E 139°44'1211.7
2015-Mar-22 13:33N 35°08' E 139°46'1212.2
2015-Mar-22 12:33N 34°56' E 139°45'11 9.7
2015-Mar-22 11:26N 34°53' E 139°57'1211.9
2015-Mar-22 10:27N 34°60' E 140°09'  
Track history (hours):
 
Tides and Currents Weather Stations Pressure Air Temp Water Temp Dewpoint Dewpoint Depression Visibility Wind Speed Wind Dir Waves Ship Positions

No.3tokuyomaru

Last reported at 2015-Mar-29 12:33 UTC. Time now 2015-Mar-30 20:02 UTC.
Position N 34°37' E 135°01'.

Length 67 m; draft 4.6 m.

Type: Tanker. MMSI: 431002151.

Date/timePositionNaut miles runAvg speedWind from/ knotsBaromVisibWave heightAir tempDewpointWater temp
2015-Mar-29 12:33N 34°37' E 135°01'1010.3
2015-Mar-29 11:33N 34°27' E 135°03'1312.3
2015-Mar-29 10:30N 34°15' E 134°59'232 9.9
2015-Mar-28 11:11N 35°03' E 139°35'711.3
2015-Mar-28 10:33N 35°07' E 139°42'1110.9
2015-Mar-28 09:33N 35°18' E 139°44'1010.3
2015-Mar-28 08:33N 35°28' E 139°48'1212.3
2015-Mar-28 07:33N 35°32' E 140°02'1 1.2
2015-Mar-28 06:29N 35°32' E 140°03'0 0.0
2015-Mar-28 05:29N 35°32' E 140°03'0 0.0
2015-Mar-28 04:26N 35°32' E 140°03'0 0.0
2015-Mar-28 03:32N 35°32' E 140°03'0 0.0
2015-Mar-28 02:26N 35°32' E 140°03'0 0.0
2015-Mar-28 01:32N 35°32' E 140°03'0 0.0
2015-Mar-28 00:26N 35°32' E 140°03'0 0.0
2015-Mar-27 23:31N 35°32' E 140°03'2 2.2
2015-Mar-27 22:31N 35°34' E 140°04'0 0.0
2015-Mar-27 21:31N 35°34' E 140°04'0 0.0
2015-Mar-27 19:13N 35°34' E 140°04'0 0.1
2015-Mar-27 18:26N 35°34' E 140°04'0 0.1
2015-Mar-27 17:32N 35°34' E 140°04'2 2.2
2015-Mar-27 16:33N 35°33' E 140°02'1312.8
2015-Mar-27 15:33N 35°26' E 139°49'1111.1
2015-Mar-27 14:33N 35°15' E 139°47'1312.8
2015-Mar-27 13:33N 35°02' E 139°44'53 8.4
2015-Mar-27 07:15N 35°26' E 140°42'28 7.5
2015-Mar-27 03:33N 35°54' E 140°41'0 0.0
2015-Mar-26 23:22N 35°54' E 140°41'3 3.8
2015-Mar-26 22:33N 35°57' E 140°42'0 0.0
2015-Mar-26 21:33N 35°57' E 140°42'0 0.0
2015-Mar-26 20:33N 35°57' E 140°42'0 0.0
2015-Mar-26 19:33N 35°57' E 140°42'0 0.0
2015-Mar-26 18:29N 35°57' E 140°42'0 0.0
2015-Mar-26 17:33N 35°57' E 140°42'42 9.7
2015-Mar-26 13:12N 35°15' E 140°32'2314.0
2015-Mar-26 11:33N 34°60' E 140°11'2211.2
2015-Mar-26 09:33N 34°58' E 139°44'1212.2
2015-Mar-26 08:33N 35°10' E 139°46'1211.9
2015-Mar-26 07:33N 35°22' E 139°42'9 1.7
2015-Mar-26 02:33N 35°30' E 139°45'3 3.3
2015-Mar-26 01:31N 35°29' E 139°48'0 0.0
2015-Mar-26 00:31N 35°29' E 139°48'0 0.0
2015-Mar-25 23:31N 35°29' E 139°48'0 0.0
2015-Mar-25 22:31N 35°29' E 139°48'0 0.0
2015-Mar-25 21:31N 35°29' E 139°48'0 0.0
2015-Mar-25 20:31N 35°29' E 139°48'0 0.0
2015-Mar-25 19:31N 35°29' E 139°48'0 0.0
2015-Mar-25 18:25N 35°29' E 139°48'0 0.0
2015-Mar-25 17:31N 35°29' E 139°48'0 0.0
2015-Mar-25 16:31N 35°29' E 139°48'0 0.0
2015-Mar-25 15:31N 35°29' E 139°48'4 3.8
2015-Mar-25 14:33N 35°25' E 139°47'1110.8
2015-Mar-25 13:34N 35°15' E 139°47'1212.3
2015-Mar-25 12:33N 35°03' E 139°44'72 4.1
2015-Mar-24 19:09N 35°57' E 140°42'6110.1
2015-Mar-24 13:09N 35°01' E 140°13'1514.2
2015-Mar-24 12:05N 34°53' E 139°58'1212.3
2015-Mar-24 11:07N 34°57' E 139°44'712.8
2015-Mar-24 10:33N 35°04' E 139°44'1312.5
2015-Mar-24 09:32N 35°17' E 139°45'1111.0
2015-Mar-24 08:33N 35°28' E 139°47'3 0.6
2015-Mar-24 03:33N 35°30' E 139°47'9 9.2
2015-Mar-24 02:33N 35°37' E 139°55'0 0.0
2015-Mar-24 01:33N 35°37' E 139°55'0 0.0
2015-Mar-24 00:33N 35°37' E 139°55'0 0.0
2015-Mar-23 23:33N 35°37' E 139°55'3 2.9
2015-Mar-23 22:33N 35°34' E 139°55'6 5.8
2015-Mar-23 21:33N 35°28' E 139°56'0 0.0
2015-Mar-23 20:33N 35°28' E 139°56'0 0.0
2015-Mar-23 19:33N 35°28' E 139°56'0 0.0
2015-Mar-23 18:33N 35°28' E 139°56'0 0.0
2015-Mar-23 17:33N 35°28' E 139°56'0 0.1
2015-Mar-23 16:33N 35°28' E 139°56'0 0.0
2015-Mar-23 15:34N 35°28' E 139°56'0 0.0
2015-Mar-23 14:33N 35°28' E 139°56'0 0.0
2015-Mar-23 13:33N 35°28' E 139°56'0 0.0
2015-Mar-23 12:33N 35°28' E 139°56'0 0.0
2015-Mar-23 11:33N 35°28' E 139°56'0 0.0
2015-Mar-23 10:33N 35°28' E 139°56'0 0.0
2015-Mar-23 09:33N 35°28' E 139°56'0 0.0
2015-Mar-23 08:33N 35°28' E 139°56'0 0.0
2015-Mar-23 07:33N 35°28' E 139°56'0 0.1
2015-Mar-23 06:33N 35°28' E 139°56'0 0.0
2015-Mar-23 05:33N 35°28' E 139°56'0 0.1
2015-Mar-23 04:33N 35°28' E 139°56'0 0.0
2015-Mar-23 03:33N 35°28' E 139°56'0 0.0
2015-Mar-23 02:34N 35°28' E 139°56'0 0.0
2015-Mar-23 01:33N 35°28' E 139°56'0 0.0
2015-Mar-23 00:34N 35°28' E 139°56'0 0.0
2015-Mar-22 23:34N 35°28' E 139°56'0 0.0
2015-Mar-22 22:33N 35°28' E 139°56'0 0.0
2015-Mar-22 21:33N 35°28' E 139°56'0 0.0
2015-Mar-22 20:33N 35°28' E 139°56'0 0.0
2015-Mar-22 19:33N 35°28' E 139°56'0 0.0
2015-Mar-22 18:33N 35°28' E 139°56'0 0.0
2015-Mar-22 17:33N 35°28' E 139°56'0 0.0
2015-Mar-22 16:33N 35°28' E 139°56'1 1.2
2015-Mar-22 15:33N 35°28' E 139°54'1211.9
2015-Mar-22 14:33N 35°20' E 139°44'1211.7
2015-Mar-22 13:33N 35°08' E 139°46'1212.2
2015-Mar-22 12:33N 34°56' E 139°45'11 9.7
2015-Mar-22 11:26N 34°53' E 139°57'1211.9
2015-Mar-22 10:27N 34°60' E 140°09'  

Dump ship's entire track history